This is the latest recevied weather packets stored in our database for station/object DG9MHV-10. If no packets are shown the sender has not sent any weather packets the latest 10 day(s).
| Time | Temp. | Humidity | Pressure | Rain* | Wind** | Luminosity | Snow |
|---|---|---|---|---|---|---|---|
| 1777704971 | 27.78° C | 77% | 1023 hPa | - | - | - | - |
| 1777704071 | 26.67° C | 77% | 1023.1 hPa | - | - | - | - |
| 1777703171 | 25.56° C | 84% | 1023 hPa | - | - | - | - |
| 1777702271 | 25° C | 100% | 1023 hPa | - | - | - | - |
| 1777701371 | 21.67° C | 100% | 1023.1 hPa | - | - | - | - |
| 1777700471 | 19.44° C | 100% | 1023.2 hPa | - | - | - | - |
| 1777699571 | 18.89° C | 100% | 1023.2 hPa | - | - | - | - |
| 1777698671 | 17.22° C | 100% | 1023.1 hPa | - | - | - | - |
| 1777697771 | 14.44° C | 100% | 1022.8 hPa | - | - | - | - |
| 1777696870 | 10.56° C | 100% | 1022.5 hPa | - | - | - | - |
| 1777695970 | 5° C | 100% | 1022.2 hPa | - | - | - | - |
| 1777695070 | 3.89° C | 100% | 1022.5 hPa | - | - | - | - |
| 1777694170 | 4.44° C | 100% | 1022.6 hPa | - | - | - | - |
| 1777693270 | 4.44° C | 100% | 1022.7 hPa | - | - | - | - |
| 1777692370 | 4.44° C | 100% | 1022.9 hPa | - | - | - | - |
| 1777691470 | 4.44° C | 100% | 1023.1 hPa | - | - | - | - |
| 1777690570 | 5° C | 100% | 1023.1 hPa | - | - | - | - |
| 1777689670 | 5° C | 100% | 1023.1 hPa | - | - | - | - |
| 1777688770 | 5.56° C | 100% | 1023.1 hPa | - | - | - | - |
| 1777687870 | 5.56° C | 100% | 1023.2 hPa | - | - | - | - |
| 1777686973 | 5.56° C | 100% | 1023.3 hPa | - | - | - | - |
| 1777686069 | 6.11° C | 100% | 1023.3 hPa | - | - | - | - |
| 1777685169 | 6.11° C | 100% | 1023.4 hPa | - | - | - | - |
| 1777684269 | 6.67° C | 100% | 1023.5 hPa | - | - | - | - |
| 1777683369 | 7.22° C | 100% | 1023.5 hPa | - | - | - | - |
* Rain since midnight (hover to see other rain measurements)
** Current wind speed in m/s (hover to see current wind gust speed)